Avoca, PA

3:50 AM EDT on October 24, 2014 (GMT -0400)
Swoyersville | Change Station
CLOSE
Current Station
Personal Weather Station
Location: Kingston, PA
Elevation: 558 ft
Nearby Weather Stations

Elev 558 ft 41.30 °N, 75.87 °W | Updated 5 minutes ago

Overcast
Overcast
52.2 °F
Feels Like 52.2 °F
N
6.3
Wind Variable Wind from ESE

Today
High -- | Low -- °F
--% Chance of Precip.
Yesterday
High -- | Low -- °F
Precip. -- in
7:25 AM 6:08 PM
New Moon, 0% visible
Pressure 29.86 in
Visibility 10.0 miles
Clouds Overcast 1800 ft
Dew Point 46 °F
Humidity 79%
Rainfall 0.00 in
Snow Depth Not available.
UV 0 out of 12
Pollen .10 out of 12
Air Quality Not available.
Flu Activity Not available.
METAR KAVP 240654Z AUTO 35007KT 10SM OVC018 11/06 A2986 RMK AO2 SLP112 T01060061

More Conditions Fewer Conditions

Pressure 29.86 in
Visibility 10.0 miles
Clouds Overcast 1800 ft
Dew Point 46 °F
Humidity 79%
Rainfall 0.00 in
Snow Depth Not available.
UV 0 out of 12
Pollen .10 out of 12
Air Quality Not available.
Flu Activity Not available.
METAR KAVP 240654Z AUTO 35007KT 10SM OVC018 11/06 A2986 RMK AO2 SLP112 T01060061

More Conditions Fewer Conditions

10-Day Weather Forecast

Almanac

Astronomy

Oct. 24, 2014 Rise Set
Actual Time 7:25 AM EDT 6:08 PM EDT
Civil Twilight 6:56 AM EDT 6:37 PM EDT
Nautical Twilight 6:24 AM EDT 7:09 PM EDT
Astronomical Twilight 5:52 AM EDT 7:41 PM EDT
Moon 8:02 AM EDT 6:46 PM EDT
Length of Visible Light 11h 40m
Length of Day
10h 43m
Tomorrow will be 2m 33s shorter.
New Moon, 0% of the Moon is Illuminated
Today
New Moon
Oct 30
First Quarter
Nov 6
Full
Nov 14
Last Quarter
Nov 22
New

Today's Extremes

State Highs State Lows

Community

WunderPhotos

Upload Photos

1,764,512 photos uploaded!

WunderBlogs® & News

Nearby

Snow Depth

Station Depth Elevation
No new snow has been reported.

Earthquake Activity

City Distance Mag. Time & Date
No recent earthquake activity has been reported nearby.
Minimum magnitude displayed is 2.5.

Coastal Water Temperatures

Place Temperature
No Stations Reporting

Nearby Weather Stations